Terminal Aerodrome Forecast
Issued by NWS Sioux Falls, SD

Home | Current Version | Previous Version | Text Only | Print | Product List | Glossary On
Versions: 1 2 3 4 5 6 7 8 9 10 11 12 13 14 15 16 17
000
FTUS43 KFSD 261731
TAFHON
TAF
KHON 261731Z 2618/2718 36012G18KT P6SM BKN015 BKN030
     FM262100 36012G18KT P6SM SCT015 OVC030
     FM270600 34012G17KT P6SM SCT012 OVC025
     FM270800 35012G18KT P6SM SCT010 OVC025
      TEMPO 2708/2712 -SN BKN010
     FM271300 34014KT P6SM SCT015 BKN030=

USA.gov is the U.S. government's official web portal to all federal, state and local government web resources and services.